Time;durP1;ratioP1;P1;durP2;ratioP2;P2;SDS_P1;SDS_P2;PMS_P1;PMS_P2;Temp;Humidity;BMP_temperature;BMP_pressure;BME280_temperature;BME280_humidity;BME280_pressure;Samples;Min_cycle;Max_cycle;Signal;HPM_P1;HPM_P2
2022/04/09 00:01:36;;;;;;;8.13;5.63;;;5.50;99.90;;;;;;5013526;28;20180;-80
2022/04/09 00:04:02;;;;;;;8.83;5.43;;;5.50;99.90;;;;;;5013844;28;20192;-80
2022/04/09 00:06:28;;;;;;;7.87;5.83;;;5.50;99.90;;;;;;5013498;28;20189;-80
2022/04/09 00:08:54;;;;;;;8.90;6.20;;;5.40;99.90;;;;;;4996543;28;20238;-80
2022/04/09 00:11:20;;;;;;;10.40;5.27;;;5.40;99.90;;;;;;4996162;28;20197;-79
2022/04/09 00:13:46;;;;;;;8.17;5.53;;;5.30;99.90;;;;;;4995583;28;20761;-81
2022/04/09 00:16:12;;;;;;;7.07;4.73;;;5.30;99.90;;;;;;5012804;28;20240;-81
2022/04/09 00:18:37;;;;;;;8.90;5.47;;;5.20;99.90;;;;;;4996548;28;20185;-80
2022/04/09 00:21:03;;;;;;;8.37;4.90;;;5.20;99.90;;;;;;4996019;28;20673;-80
2022/04/09 00:23:29;;;;;;;7.50;4.67;;;5.20;99.90;;;;;;5015610;28;20681;-80
2022/04/09 00:25:55;;;;;;;10.77;5.80;;;5.20;99.90;;;;;;4998775;28;20657;-80
2022/04/09 00:28:20;;;;;;;7.57;4.97;;;5.20;99.90;;;;;;5008434;28;20177;-80
2022/04/09 00:30:46;;;;;;;6.97;4.87;;;;;;;;;;5031156;28;20212;-81
2022/04/09 00:33:12;;;;;;;10.43;5.80;;;5.10;99.90;;;;;;5031214;28;20185;-81
2022/04/09 00:35:38;;;;;;;9.40;5.10;;;5.20;99.90;;;;;;5036496;28;20217;-81
2022/04/09 00:38:04;;;;;;;8.70;5.00;;;5.10;99.90;;;;;;5037364;28;20240;-81
2022/04/09 00:40:29;;;;;;;8.07;5.03;;;5.10;99.90;;;;;;5034634;28;20212;-80
2022/04/09 00:42:55;;;;;;;15.13;6.10;;;5.10;99.90;;;;;;5017113;28;20641;-80
2022/04/09 00:45:21;;;;;;;9.20;6.10;;;5.00;99.90;;;;;;5021076;28;20192;-80
2022/04/09 00:47:47;;;;;;;7.63;5.70;;;5.00;99.90;;;;;;5024178;28;20174;-81
2022/04/09 00:50:13;;;;;;;8.77;6.50;;;5.00;99.90;;;;;;5040672;28;20192;-84
2022/04/09 00:52:47;;;;;;;13.73;7.03;;;5.10;99.90;;;;;;5040815;28;20458;-80
2022/04/09 00:55:16;;;;;;;9.33;6.57;;;5.10;99.90;;;;;;5021069;28;20681;-81
2022/04/09 00:57:45;;;;;;;9.63;6.43;;;5.00;99.90;;;;;;4999194;28;20200;-80
2022/04/09 01:00:11;;;;;;;12.40;6.70;;;5.00;99.90;;;;;;5016598;28;20185;-80
2022/04/09 01:02:43;;;;;;;9.53;7.27;;;5.00;99.90;;;;;;4982583;28;20197;-80
2022/04/09 01:05:09;;;;;;;10.53;7.13;;;4.40;99.90;;;;;;5016372;28;20205;-80
2022/04/09 01:07:35;;;;;;;8.87;6.20;;;4.90;99.90;;;;;;4998836;28;20182;-80
2022/04/09 01:10:06;;;;;;;11.17;6.90;;;4.80;99.90;;;;;;4998938;28;20188;-80
2022/04/09 01:12:35;;;;;;;10.30;6.43;;;4.80;99.90;;;;;;5015351;28;20232;-80
2022/04/09 01:15:03;;;;;;;10.20;6.70;;;4.80;99.90;;;;;;5015810;28;20216;-82
2022/04/09 01:17:29;;;;;;;11.93;7.23;;;4.80;99.90;;;;;;5015680;28;20173;-80
2022/04/09 01:19:55;;;;;;;12.13;6.67;;;4.80;99.90;;;;;;5016221;28;20189;-80
2022/04/09 01:22:21;;;;;;;11.00;6.93;;;4.70;99.90;;;;;;4998738;28;20181;-80
2022/04/09 01:24:46;;;;;;;10.57;7.03;;;4.70;99.90;;;;;;4998075;28;20239;-80
2022/04/09 01:27:12;;;;;;;9.70;7.30;;;4.70;99.90;;;;;;5016263;28;20181;-80
2022/04/09 01:29:39;;;;;;;9.83;6.93;;;4.70;99.90;;;;;;5015451;28;20192;-80
2022/04/09 01:32:05;;;;;;;11.00;6.50;;;4.70;99.90;;;;;;5014501;28;20276;-81
2022/04/09 01:34:31;;;;;;;9.70;6.27;;;4.70;99.90;;;;;;5015568;28;20185;-80
2022/04/09 01:36:56;;;;;;;9.80;6.60;;;4.60;99.90;;;;;;5015917;28;20176;-80
2022/04/09 01:39:22;;;;;;;12.03;7.43;;;4.60;99.90;;;;;;5009498;28;20192;-80
2022/04/09 01:41:48;;;;;;;9.57;6.37;;;4.60;99.90;;;;;;5034953;28;20230;-80
2022/04/09 01:44:13;;;;;;;13.07;6.40;;;4.70;99.90;;;;;;5018129;28;20199;-81
2022/04/09 01:46:44;;;;;;;10.90;6.00;;;4.60;99.90;;;;;;5035413;28;20614;-80
2022/04/09 01:49:11;;;;;;;13.13;6.87;;;4.60;99.90;;;;;;5035941;28;20233;-80
2022/04/09 01:51:37;;;;;;;12.03;7.10;;;4.60;99.90;;;;;;5017875;28;20188;-80
2022/04/09 01:54:02;;;;;;;9.80;6.27;;;4.70;99.90;;;;;;5017996;28;20244;-81
2022/04/09 01:56:28;;;;;;;10.60;7.03;;;4.60;99.90;;;;;;5034599;28;20689;-81
2022/04/09 01:58:54;;;;;;;10.63;6.77;;;4.60;99.90;;;;;;5001206;28;20184;-81
2022/04/09 02:01:19;;;;;;;11.13;6.77;;;4.60;99.90;;;;;;5017461;28;20541;-80
2022/04/09 02:03:45;;;;;;;10.43;7.03;;;4.60;99.90;;;;;;5034745;28;20184;-80
2022/04/09 02:06:11;;;;;;;10.27;6.33;;;4.50;99.90;;;;;;5035344;28;20538;-80
2022/04/09 02:08:37;;;;;;;9.57;6.20;;;5.10;99.90;;;;;;5017662;28;20180;-81
2022/04/09 02:11:03;;;;;;;7.93;5.83;;;4.60;99.90;;;;;;4985142;28;20188;-80
2022/04/09 02:13:28;;;;;;;9.13;6.23;;;4.50;99.90;;;;;;5035121;28;20552;-80
2022/04/09 02:15:54;;;;;;;8.93;5.73;;;4.50;99.90;;;;;;5034722;28;20219;-80
2022/04/09 02:18:20;;;;;;;8.03;6.07;;;4.50;99.90;;;;;;5001200;28;20535;-80
2022/04/09 02:20:45;;;;;;;9.90;5.87;;;4.50;99.90;;;;;;5034763;28;20188;-80
2022/04/09 02:23:11;;;;;;;11.40;6.57;;;4.50;99.90;;;;;;5035262;28;20180;-80
2022/04/09 02:25:37;;;;;;;9.33;6.27;;;4.40;99.90;;;;;;5017144;28;20659;-80
2022/04/09 02:28:03;;;;;;;7.73;6.37;;;4.40;99.90;;;;;;5000888;28;20184;-81
2022/04/09 02:30:29;;;;;;;8.07;6.30;;;4.40;99.90;;;;;;5001179;28;20180;-80
2022/04/09 02:32:55;;;;;;;7.40;5.63;;;4.40;99.90;;;;;;5034829;28;20187;-80
2022/04/09 02:35:26;;;;;;;10.20;6.00;;;4.40;99.90;;;;;;5034465;28;20216;-80
2022/04/09 02:37:52;;;;;;;10.90;6.47;;;4.40;99.90;;;;;;5034291;28;20161;-80
2022/04/09 02:40:18;;;;;;;9.47;6.53;;;4.40;99.90;;;;;;5013933;28;20181;-80
2022/04/09 02:42:44;;;;;;;9.50;7.00;;;4.40;99.90;;;;;;5024682;28;20537;-80
2022/04/09 02:45:13;;;;;;;8.77;5.97;;;4.40;99.90;;;;;;5024642;28;20188;-80
2022/04/09 02:47:40;;;;;;;9.73;7.17;;;4.40;99.90;;;;;;5005298;28;20272;-81
2022/04/09 02:50:06;;;;;;;8.33;5.93;;;4.40;99.90;;;;;;5022602;28;20278;-80
2022/04/09 02:52:39;;;;;;;9.40;6.10;;;4.30;99.90;;;;;;5023781;28;20588;-80
2022/04/09 02:55:06;;;;;;;10.17;7.13;;;4.30;99.90;;;;;;5005815;28;20219;-81
2022/04/09 02:57:33;;;;;;;9.23;6.53;;;4.30;99.90;;;;;;5021217;28;20199;-81
2022/04/09 02:59:58;;;;;;;8.40;5.90;;;4.30;99.90;;;;;;5022000;28;20635;-81
2022/04/09 03:02:24;;;;;;;11.70;6.63;;;4.30;99.90;;;;;;5021360;28;20191;-80
2022/04/09 03:04:51;;;;;;;10.77;7.27;;;4.40;99.90;;;;;;5023336;28;20283;-81
2022/04/09 03:07:17;;;;;;;10.67;7.10;;;4.30;99.90;;;;;;5022228;28;20188;-80
2022/04/09 03:09:43;;;;;;;10.33;6.83;;;4.30;99.90;;;;;;5022079;28;20180;-80
2022/04/09 03:12:09;;;;;;;9.93;7.33;;;4.30;99.90;;;;;;5023414;28;20302;-80
2022/04/09 03:14:35;;;;;;;11.93;6.80;;;4.30;99.90;;;;;;5005901;28;20222;-79
2022/04/09 03:17:00;;;;;;;9.87;7.10;;;4.30;99.90;;;;;;5022453;28;20188;-81
2022/04/09 03:19:26;;;;;;;11.40;7.27;;;4.30;99.90;;;;;;5022233;28;20188;-80
2022/04/09 03:21:52;;;;;;;12.67;6.90;;;4.30;99.90;;;;;;5023425;28;20176;-80
2022/04/09 03:24:18;;;;;;;10.83;6.77;;;4.30;99.90;;;;;;5020012;28;20192;-81
2022/04/09 03:26:44;;;;;;;9.77;6.60;;;4.40;99.90;;;;;;4986999;28;20185;-80
2022/04/09 03:29:10;;;;;;;13.07;7.27;;;4.30;99.90;;;;;;5023079;28;20188;-81
2022/04/09 03:31:35;;;;;;;11.20;7.47;;;4.10;99.90;;;;;;4987876;28;20641;-80
2022/04/09 03:34:04;;;;;;;10.17;6.90;;;4.40;99.90;;;;;;5002976;28;20180;-80
2022/04/09 03:36:30;;;;;;;10.63;7.70;;;4.40;99.90;;;;;;5022735;28;20326;-80
2022/04/09 03:38:55;;;;;;;12.53;7.97;;;4.40;99.90;;;;;;5022594;28;20181;-80
2022/04/09 03:41:21;;;;;;;12.73;7.50;;;4.40;99.90;;;;;;5003305;28;20181;-80
2022/04/09 03:43:49;;;;;;;12.07;8.17;;;4.40;99.90;;;;;;5022627;28;20626;-80
2022/04/09 03:46:15;;;;;;;13.00;8.43;;;4.40;99.90;;;;;;4988927;28;20189;-80
2022/04/09 03:48:42;;;;;;;13.60;8.97;;;4.40;99.90;;;;;;5003062;28;20276;-80
2022/04/09 03:51:07;;;;;;;11.57;8.37;;;4.40;99.90;;;;;;5022977;28;20187;-81
2022/04/09 03:53:34;;;;;;;11.53;8.07;;;4.40;99.90;;;;;;5005403;28;20199;-80
2022/04/09 03:56:00;;;;;;;14.93;8.23;;;4.40;99.90;;;;;;5020794;28;20688;-80
2022/04/09 03:58:26;;;;;;;10.37;7.47;;;4.60;99.90;;;;;;4998255;28;20189;-80
2022/04/09 04:00:52;;;;;;;10.07;7.77;;;4.40;99.90;;;;;;5013304;28;20181;-80
2022/04/09 04:03:19;;;;;;;13.87;8.50;;;4.40;99.90;;;;;;5013027;28;20192;-80
2022/04/09 04:05:46;;;;;;;11.73;8.10;;;4.40;99.90;;;;;;5012974;28;20180;-80
2022/04/09 04:08:12;;;;;;;11.77;7.97;;;;;;;;;;5014207;28;20188;-80
2022/04/09 04:10:38;;;;;;;11.03;8.17;;;4.50;99.90;;;;;;5024028;28;20185;-81
2022/04/09 04:13:07;;;;;;;12.37;8.07;;;4.50;99.90;;;;;;5007435;28;20568;-80
2022/04/09 04:15:33;;;;;;;13.20;8.60;;;4.50;99.90;;;;;;5025819;28;20231;-80
2022/04/09 04:17:59;;;;;;;12.27;8.77;;;4.40;99.90;;;;;;5008237;28;20241;-81
2022/04/09 04:20:25;;;;;;;12.33;8.37;;;4.50;99.90;;;;;;5016312;28;20262;-80
2022/04/09 04:22:51;;;;;;;11.83;7.77;;;4.50;99.90;;;;;;5013129;28;20586;-80
2022/04/09 04:25:17;;;;;;;11.13;7.67;;;4.50;99.90;;;;;;4995679;28;20239;-80
2022/04/09 04:27:46;;;;;;;13.07;8.83;;;4.50;99.90;;;;;;5013387;28;20182;-80
2022/04/09 04:30:13;;;;;;;12.83;8.30;;;4.60;99.90;;;;;;4979628;28;20185;-80
2022/04/09 04:32:39;;;;;;;11.87;8.17;;;4.50;99.90;;;;;;5012888;28;20179;-80
2022/04/09 04:35:05;;;;;;;14.70;8.57;;;4.50;99.90;;;;;;5012553;28;20298;-80
2022/04/09 04:37:41;;;;;;;11.43;7.60;;;4.50;99.90;;;;;;4995546;28;20519;-80
2022/04/09 04:40:08;;;;;;;12.03;7.90;;;4.60;99.90;;;;;;5012737;28;20538;-80
2022/04/09 04:42:34;;;;;;;12.30;8.53;;;4.60;99.90;;;;;;5013048;28;20558;-79
2022/04/09 04:44:59;;;;;;;12.30;8.37;;;4.50;99.90;;;;;;5012854;28;20181;-80
2022/04/09 04:47:25;;;;;;;15.80;9.03;;;4.60;99.90;;;;;;5013091;28;20195;-79
2022/04/09 04:49:51;;;;;;;13.67;8.87;;;5.80;99.90;;;;;;4995233;28;20189;-80
2022/04/09 04:52:16;;;;;;;41.10;24.43;;;4.60;99.90;;;;;;5012891;28;20226;-79
2022/04/09 04:54:42;;;;;;;55.40;32.80;;;4.60;99.90;;;;;;5012647;28;20690;-80
2022/04/09 04:57:08;;;;;;;50.73;28.43;;;4.70;99.90;;;;;;5012651;28;20181;-80
2022/04/09 04:59:33;;;;;;;38.70;22.60;;;4.60;99.90;;;;;;5016707;28;20282;-80
2022/04/09 05:01:59;;;;;;;31.47;16.20;;;4.60;99.90;;;;;;5032228;28;20195;-80
2022/04/09 05:04:25;;;;;;;105.80;57.67;;;4.60;99.90;;;;;;5032972;28;20230;-80
2022/04/09 05:06:51;;;;;;;130.83;72.33;;;4.70;99.90;;;;;;4998623;28;20184;-80
2022/04/09 05:09:18;;;;;;;46.23;25.87;;;4.70;99.90;;;;;;5032488;28;20259;-80
2022/04/09 05:11:44;;;;;;;79.80;41.83;;;4.80;99.90;;;;;;5031716;28;20188;-81
2022/04/09 05:14:10;;;;;;;32.30;18.73;;;4.80;99.90;;;;;;5032031;28;20533;-80
2022/04/09 05:16:36;;;;;;;28.30;14.90;;;4.80;99.90;;;;;;5032169;28;20208;-80
2022/04/09 05:19:02;;;;;;;46.77;24.53;;;4.70;99.90;;;;;;5032148;28;20196;-80
2022/04/09 05:21:28;;;;;;;21.43;12.77;;;4.80;99.90;;;;;;5032438;28;20180;-81
2022/04/09 05:23:53;;;;;;;72.43;34.83;;;4.80;99.90;;;;;;5032399;28;20188;-81
2022/04/09 05:26:19;;;;;;;89.70;41.60;;;4.80;99.90;;;;;;5013225;28;20650;-81
2022/04/09 05:28:45;;;;;;;88.93;38.20;;;4.80;99.90;;;;;;5013882;28;20223;-82
2022/04/09 05:31:12;;;;;;;59.57;27.13;;;4.90;99.90;;;;;;5032723;28;20188;-82
2022/04/09 05:33:38;;;;;;;137.40;57.33;;;4.80;99.90;;;;;;5034207;28;20699;-82
2022/04/09 05:36:05;;;;;;;237.80;104.93;;;4.80;99.90;;;;;;5022619;28;20578;-80
2022/04/09 05:38:31;;;;;;;99.57;41.07;;;4.90;99.90;;;;;;5025378;28;20185;-80
2022/04/09 05:40:58;;;;;;;48.20;22.60;;;4.80;99.90;;;;;;5023476;28;20262;-85
2022/04/09 05:43:24;;;;;;;82.57;36.03;;;4.90;99.90;;;;;;5024961;28;20181;-81
2022/04/09 05:45:50;;;;;;;82.30;33.60;;;4.90;99.90;;;;;;4991543;28;20186;-80
2022/04/09 05:48:16;;;;;;;29.73;16.17;;;4.90;99.90;;;;;;5023456;28;20649;-81
2022/04/09 05:50:41;;;;;;;36.93;18.23;;;4.80;99.90;;;;;;5025438;28;20176;-81
2022/04/09 05:53:07;;;;;;;279.50;92.40;;;4.90;99.90;;;;;;5007053;28;20186;-81
2022/04/09 05:55:33;;;;;;;324.70;98.97;;;4.90;99.90;;;;;;5005884;28;20242;-81
2022/04/09 05:57:59;;;;;;;31.83;18.33;;;4.90;99.90;;;;;;5025354;28;20550;-81
2022/04/09 06:00:25;;;;;;;24.73;13.20;;;5.00;99.90;;;;;;5026501;28;20191;-81
2022/04/09 06:02:51;;;;;;;22.23;13.27;;;4.90;99.90;;;;;;5027275;28;20188;-80
2022/04/09 06:05:17;;;;;;;22.17;13.73;;;4.90;99.90;;;;;;5034249;28;20218;-80
2022/04/09 06:07:43;;;;;;;24.97;13.50;;;4.80;99.90;;;;;;5016623;28;20173;-81
2022/04/09 06:10:10;;;;;;;17.90;12.33;;;;;;;;;;5001468;28;20645;-81
2022/04/09 06:12:36;;;;;;;21.93;12.37;;;4.90;99.90;;;;;;5023483;28;20236;-81
2022/04/09 06:15:03;;;;;;;18.57;11.97;;;4.80;99.90;;;;;;5035282;28;20208;-81
2022/04/09 06:17:29;;;;;;;23.60;14.03;;;4.80;99.90;;;;;;5036360;28;20180;-80
2022/04/09 06:19:55;;;;;;;19.30;12.57;;;4.80;99.90;;;;;;5001929;28;20181;-80
2022/04/09 06:22:21;;;;;;;113.23;33.17;;;4.80;99.90;;;;;;5034661;28;20191;-80
2022/04/09 06:24:46;;;;;;;45.40;18.23;;;4.90;99.90;;;;;;5001393;28;20185;-81
2022/04/09 06:27:12;;;;;;;19.37;11.60;;;4.80;99.90;;;;;;5018806;28;20189;-80
2022/04/09 06:29:38;;;;;;;18.17;11.10;;;4.90;99.90;;;;;;5038856;28;20176;-80
2022/04/09 06:32:04;;;;;;;22.50;12.50;;;4.90;99.90;;;;;;5038208;28;20183;-80
2022/04/09 06:34:30;;;;;;;14.43;10.47;;;4.90;99.90;;;;;;5020439;28;20231;-80
2022/04/09 06:36:56;;;;;;;21.17;12.23;;;5.00;99.90;;;;;;5048004;28;20169;-80
2022/04/09 06:39:23;;;;;;;19.70;10.57;;;5.00;99.90;;;;;;5025519;28;20177;-81
2022/04/09 06:41:50;;;;;;;21.57;12.43;;;5.00;99.90;;;;;;5058734;28;20157;-80
2022/04/09 06:44:16;;;;;;;56.50;19.63;;;5.00;99.90;;;;;;5041941;28;20185;-81
2022/04/09 06:46:43;;;;;;;96.73;28.70;;;5.00;99.90;;;;;;5048673;28;20180;-80
2022/04/09 06:49:15;;;;;;;20.33;13.50;;;5.00;99.90;;;;;;5026451;28;20189;-83
2022/04/09 06:51:42;;;;;;;24.50;14.17;;;5.00;99.90;;;;;;5056385;28;20180;-81
2022/04/09 06:54:09;;;;;;;23.53;15.40;;;5.00;99.90;;;;;;5033466;28;20177;-84
2022/04/09 06:56:36;;;;;;;25.53;14.10;;;5.10;99.90;;;;;;5049289;28;20283;-83
2022/04/09 06:59:03;;;;;;;22.70;13.67;;;5.10;99.90;;;;;;5052629;28;20271;-81
2022/04/09 07:01:30;;;;;;;26.97;16.27;;;5.00;99.90;;;;;;5035385;28;20173;-81
2022/04/09 07:03:56;;;;;;;27.83;17.90;;;3.10;99.90;;;;;;5014937;28;20193;-81
2022/04/09 07:06:22;;;;;;;27.17;16.87;;;5.00;99.90;;;;;;5032405;28;20187;-81
2022/04/09 07:08:47;;;;;;;25.57;15.57;;;4.90;99.90;;;;;;5033305;28;20177;-80
2022/04/09 07:11:13;;;;;;;19.00;12.93;;;5.00;99.90;;;;;;5033171;28;20708;-81
2022/04/09 07:13:39;;;;;;;22.63;14.50;;;4.90;99.90;;;;;;5015597;28;20228;-80
2022/04/09 07:16:05;;;;;;;21.37;14.93;;;4.90;99.90;;;;;;5012831;28;20295;-80
2022/04/09 07:18:32;;;;;;;15.70;11.37;;;;;;;;;;5033010;28;20192;-81
2022/04/09 07:20:58;;;;;;;17.57;10.70;;;4.90;99.90;;;;;;5031411;28;20196;-80
2022/04/09 07:23:23;;;;;;;18.13;11.63;;;4.90;99.90;;;;;;5032389;28;20184;-79
2022/04/09 07:25:49;;;;;;;16.77;10.00;;;4.90;99.90;;;;;;5032718;28;20646;-80
2022/04/09 07:28:15;;;;;;;14.30;10.43;;;4.90;99.90;;;;;;5032624;28;20634;-79
2022/04/09 07:30:42;;;;;;;15.33;10.60;;;4.90;99.90;;;;;;5032945;28;20184;-78
2022/04/09 07:33:08;;;;;;;16.10;11.67;;;4.90;99.90;;;;;;5015330;28;20183;-79
2022/04/09 07:35:35;;;;;;;14.50;11.30;;;4.80;99.90;;;;;;5023732;28;20299;-79
2022/04/09 07:38:01;;;;;;;17.80;11.80;;;4.70;99.90;;;;;;5003823;28;20191;-79
2022/04/09 07:40:30;;;;;;;18.40;12.03;;;4.90;99.90;;;;;;5014264;28;20189;-78
2022/04/09 07:42:57;;;;;;;20.10;13.43;;;4.70;99.90;;;;;;5032833;28;20710;-79
2022/04/09 07:45:24;;;;;;;19.27;13.73;;;4.80;99.90;;;;;;5032741;28;20187;-79
2022/04/09 07:47:55;;;;;;;26.90;18.10;;;4.70;99.90;;;;;;5032875;28;20181;-79
2022/04/09 07:50:21;;;;;;;18.77;13.90;;;4.60;99.90;;;;;;5032332;28;20185;-79
2022/04/09 07:52:47;;;;;;;15.20;12.37;;;4.60;99.90;;;;;;5032742;28;20187;-80
2022/04/09 07:55:17;;;;;;;18.63;11.10;;;4.50;99.90;;;;;;5032646;28;20586;-80
2022/04/09 07:57:50;;;;;;;14.40;10.37;;;4.60;99.90;;;;;;5033065;28;20168;-79
2022/04/09 08:00:17;;;;;;;12.50;9.17;;;4.60;99.90;;;;;;5032891;28;20179;-82
2022/04/09 08:02:42;;;;;;;12.57;9.17;;;4.60;99.90;;;;;;5033490;28;20180;-79
2022/04/09 08:05:10;;;;;;;11.30;9.47;;;4.60;99.90;;;;;;5032896;28;20262;-81
2022/04/09 08:07:40;;;;;;;16.97;8.33;;;4.60;99.90;;;;;;5032832;28;20204;-80
2022/04/09 08:10:07;;;;;;;13.23;10.17;;;4.60;99.90;;;;;;5031993;28;20234;-80
2022/04/09 08:12:32;;;;;;;11.47;8.47;;;4.60;99.90;;;;;;5032341;28;20228;-79
2022/04/09 08:14:58;;;;;;;13.13;8.20;;;4.70;99.90;;;;;;5032593;28;20230;-81
2022/04/09 08:17:25;;;;;;;9.77;8.17;;;4.70;99.90;;;;;;5014879;28;20177;-80
2022/04/09 08:19:50;;;;;;;8.83;6.43;;;4.80;99.90;;;;;;5032544;28;20263;-79
2022/04/09 08:22:17;;;;;;;14.90;10.63;;;4.80;99.90;;;;;;5014391;28;20274;-79
2022/04/09 08:24:45;;;;;;;17.53;11.37;;;4.70;99.90;;;;;;5011542;28;20543;-80
2022/04/09 08:27:11;;;;;;;9.17;6.87;;;4.60;99.90;;;;;;5014705;28;20193;-80
2022/04/09 08:29:37;;;;;;;3.80;3.23;;;4.50;99.90;;;;;;5014440;28;20555;-79
2022/04/09 08:32:04;;;;;;;4.40;3.10;;;4.30;99.90;;;;;;5024330;28;20176;-80
2022/04/09 08:34:33;;;;;;;6.70;3.93;;;4.20;99.90;;;;;;5022058;28;20207;-79
2022/04/09 08:36:59;;;;;;;5.17;4.10;;;4.20;99.90;;;;;;5023143;28;20274;-80
2022/04/09 08:39:25;;;;;;;5.67;4.57;;;4.10;99.90;;;;;;5014900;28;20195;-80
2022/04/09 08:41:53;;;;;;;4.93;4.43;;;4.00;99.90;;;;;;4995344;28;20181;-79
2022/04/09 08:44:19;;;;;;;5.60;4.50;;;4.00;99.90;;;;;;5017954;28;20637;-80
2022/04/09 08:46:46;;;;;;;6.43;4.90;;;4.10;99.90;;;;;;5031237;28;20192;-79
2022/04/09 08:49:13;;;;;;;7.10;5.07;;;4.10;99.90;;;;;;5031713;28;20191;-80
2022/04/09 08:51:40;;;;;;;6.43;5.63;;;4.20;99.90;;;;;;5032372;28;20188;-79
2022/04/09 08:54:08;;;;;;;9.70;5.73;;;4.30;99.90;;;;;;5032163;28;20184;-79
2022/04/09 08:56:35;;;;;;;7.27;6.00;;;4.30;99.90;;;;;;5032076;28;20270;-80
2022/04/09 08:59:01;;;;;;;5.97;4.60;;;4.30;99.90;;;;;;5031584;28;20180;-80
2022/04/09 09:01:28;;;;;;;5.07;4.40;;;4.30;99.90;;;;;;5031149;28;20192;-80
2022/04/09 09:03:55;;;;;;;7.50;5.67;;;4.30;99.90;;;;;;5015043;28;20185;-79
2022/04/09 09:06:40;;;;;;;6.10;4.40;;;4.30;99.90;;;;;;5036807;28;20187;-80
2022/04/09 09:09:07;;;;;;;6.33;5.40;;;4.50;99.90;;;;;;5019687;28;20620;-80
2022/04/09 09:11:48;;;;;;;8.13;5.47;;;4.30;99.90;;;;;;5018850;28;20181;-80
2022/04/09 09:14:27;;;;;;;8.63;6.40;;;4.40;99.90;;;;;;5019002;28;20226;-80
2022/04/09 09:16:54;;;;;;;12.83;6.53;;;4.40;99.90;;;;;;5018718;28;20215;-79
2022/04/09 09:19:20;;;;;;;8.00;5.13;;;4.30;99.90;;;;;;5036107;28;20274;-79
2022/04/09 09:21:55;;;;;;;11.63;5.50;;;4.20;99.90;;;;;;5018599;28;20282;-80
2022/04/09 09:24:21;;;;;;;6.67;4.50;;;4.10;99.90;;;;;;5036323;28;20620;-80
2022/04/09 09:26:57;;;;;;;6.43;4.67;;;4.20;99.90;;;;;;5036326;28;20230;-79
2022/04/09 09:29:27;;;;;;;6.83;3.93;;;4.00;99.90;;;;;;5018624;28;20512;-79
2022/04/09 09:31:54;;;;;;;8.53;5.00;;;4.10;99.90;;;;;;5036046;28;20215;-79
2022/04/09 09:34:20;;;;;;;5.00;4.30;;;4.10;99.90;;;;;;5036234;28;20177;-78
2022/04/09 09:36:47;;;;;;;5.13;4.10;;;4.10;99.90;;;;;;5018119;28;20296;-79
2022/04/09 09:39:17;;;;;;;4.73;4.23;;;4.00;99.90;;;;;;5035749;28;20181;-79
2022/04/09 09:41:56;;;;;;;5.63;4.33;;;4.10;99.90;;;;;;5035983;28;20609;-79
2022/04/09 09:44:26;;;;;;;7.57;4.00;;;4.10;99.90;;;;;;5018160;28;20187;-80
2022/04/09 09:46:54;;;;;;;6.70;4.70;;;4.10;99.90;;;;;;5035641;28;20187;-79
2022/04/09 09:49:23;;;;;;;5.43;4.77;;;4.20;99.90;;;;;;5035572;28;20179;-79
2022/04/09 09:52:06;;;;;;;7.30;4.67;;;4.20;99.90;;;;;;5035554;28;20169;-81
2022/04/09 09:54:33;;;;;;;5.87;3.80;;;4.20;99.90;;;;;;5035824;28;20634;-79
2022/04/09 09:57:00;;;;;;;5.37;4.17;;;4.60;99.90;;;;;;5035700;28;20219;-79
2022/04/09 09:59:27;;;;;;;6.03;4.23;;;4.30;99.90;;;;;;5036364;28;20188;-80
2022/04/09 10:01:56;;;;;;;5.07;4.20;;;4.40;99.90;;;;;;5018015;28;20399;-80
2022/04/09 10:04:23;;;;;;;6.13;4.80;;;;;;;;;;5036171;28;20252;-79
2022/04/09 10:06:49;;;;;;;6.77;5.00;;;4.20;99.90;;;;;;5001434;28;20647;-79
2022/04/09 10:09:16;;;;;;;6.63;5.27;;;4.20;99.90;;;;;;5035568;28;20664;-80
2022/04/09 10:11:46;;;;;;;6.07;4.57;;;4.20;99.90;;;;;;5035012;28;20232;-79
2022/04/09 10:14:14;;;;;;;6.53;5.10;;;4.30;99.90;;;;;;5035819;28;20192;-79
2022/04/09 10:16:43;;;;;;;7.30;5.07;;;4.30;99.90;;;;;;5034418;28;20296;-79
2022/04/09 10:19:11;;;;;;;6.20;4.93;;;4.30;99.90;;;;;;5035916;28;20188;-80
2022/04/09 10:21:40;;;;;;;7.07;5.20;;;4.30;99.90;;;;;;5035440;28;20181;-80
2022/04/09 10:24:15;;;;;;;6.40;5.40;;;4.30;99.90;;;;;;5041773;28;20176;-79
2022/04/09 10:26:41;;;;;;;6.77;5.53;;;4.20;99.90;;;;;;5044752;28;20171;-80
2022/04/09 10:29:08;;;;;;;6.17;5.23;;;4.30;99.90;;;;;;5043617;28;20183;-80
2022/04/09 10:31:34;;;;;;;9.30;5.03;;;4.30;99.90;;;;;;5043497;28;20246;-79
2022/04/09 10:34:02;;;;;;;5.17;4.47;;;4.40;99.90;;;;;;5036029;28;20175;-78
2022/04/09 10:36:46;;;;;;;8.70;4.90;;;4.50;99.90;;;;;;5034482;28;20219;-80
2022/04/09 10:39:39;;;;;;;10.87;6.20;;;4.50;99.90;;;;;;5020647;28;20576;-80
2022/04/09 10:42:08;;;;;;;7.83;4.73;;;4.70;99.90;;;;;;5031284;28;20255;-80
2022/04/09 10:44:43;;;;;;;6.40;5.00;;;4.70;99.90;;;;;;5034134;28;20185;-83
2022/04/09 10:47:14;;;;;;;8.93;6.37;;;4.80;99.90;;;;;;5015275;28;20187;-79
2022/04/09 10:50:13;;;;;;;8.53;5.10;;;4.80;99.90;;;;;;5033192;28;20181;-80
2022/04/09 10:52:39;;;;;;;9.57;5.33;;;4.80;99.90;;;;;;4975898;28;20541;-80
2022/04/09 10:55:10;;;;;;;8.40;5.63;;;5.00;99.90;;;;;;5033127;28;20218;-80
2022/04/09 10:57:44;;;;;;;8.53;5.83;;;5.10;99.90;;;;;;5033221;28;20168;-79
2022/04/09 11:00:24;;;;;;;8.50;5.90;;;5.20;99.90;;;;;;5001347;28;20173;-80
2022/04/09 11:03:11;;;;;;;11.47;5.57;;;5.30;99.90;;;;;;5021136;28;20292;-80
2022/04/09 11:05:43;;;;;;;9.23;6.43;;;5.40;99.90;;;;;;5025279;28;20216;-79
2022/04/09 11:08:18;;;;;;;7.83;5.73;;;5.50;99.90;;;;;;5006750;28;20659;-79
2022/04/09 11:10:44;;;;;;;8.63;6.20;;;5.50;99.90;;;;;;5030426;28;20185;-80
2022/04/09 11:13:12;;;;;;;10.70;5.67;;;5.60;99.90;;;;;;5003613;28;20241;-79
2022/04/09 11:15:39;;;;;;;8.83;6.20;;;5.70;99.90;;;;;;4989930;28;20266;-81
2022/04/09 11:18:06;;;;;;;8.97;6.67;;;5.80;99.90;;;;;;5019620;28;20197;-83
2022/04/09 11:20:33;;;;;;;9.63;6.67;;;5.90;99.90;;;;;;5004538;28;20275;-80
2022/04/09 11:23:09;;;;;;;11.13;5.80;;;6.00;99.90;;;;;;5022473;28;20220;-79
2022/04/09 11:25:34;;;;;;;7.67;5.43;;;6.00;99.90;;;;;;5022220;28;20642;-81
2022/04/09 11:28:13;;;;;;;7.40;5.17;;;6.00;99.90;;;;;;5027389;28;20187;-80
2022/04/09 11:31:00;;;;;;;10.60;8.20;;;6.10;99.90;;;;;;5031166;28;20185;-83
2022/04/09 11:33:26;;;;;;;11.37;6.53;;;6.20;99.90;;;;;;5031344;28;20170;-79
2022/04/09 11:35:52;;;;;;;11.60;8.87;;;6.40;99.90;;;;;;5020539;28;21253;-79
2022/04/09 11:38:19;;;;;;;11.37;7.90;;;6.40;99.90;;;;;;5033583;28;20172;-80
2022/04/09 11:40:47;;;;;;;9.57;6.40;;;6.50;99.90;;;;;;5016690;28;20189;-80
2022/04/09 11:43:17;;;;;;;10.37;7.43;;;6.50;99.90;;;;;;5033735;28;20191;-80
2022/04/09 11:45:44;;;;;;;13.20;8.83;;;6.60;99.90;;;;;;5033774;28;20180;-79
2022/04/09 11:48:17;;;;;;;12.57;7.90;;;6.60;99.90;;;;;;5033650;28;20219;-80
2022/04/09 11:50:43;;;;;;;10.70;7.63;;;6.60;99.90;;;;;;5032491;28;20185;-80
2022/04/09 11:53:13;;;;;;;9.33;6.40;;;6.50;99.90;;;;;;5033480;28;20184;-80
2022/04/09 11:55:40;;;;;;;11.87;7.03;;;6.60;99.90;;;;;;5033718;28;20216;-80
2022/04/09 11:58:07;;;;;;;8.63;6.53;;;6.60;99.90;;;;;;5031192;28;20181;-80
2022/04/09 12:00:36;;;;;;;6.90;5.27;;;6.50;99.90;;;;;;5031404;28;20180;-80
2022/04/09 12:03:04;;;;;;;10.43;5.40;;;6.50;99.90;;;;;;5033303;28;20199;-80
2022/04/09 12:05:37;;;;;;;8.37;5.60;;;6.60;99.90;;;;;;5033544;28;20274;-79
2022/04/09 12:08:14;;;;;;;6.97;5.77;;;6.60;99.90;;;;;;5016162;28;20202;-80
2022/04/09 12:10:57;;;;;;;9.87;7.63;;;6.80;99.90;;;;;;5016084;28;20382;-80
2022/04/09 12:13:26;;;;;;;21.43;16.87;;;6.80;99.90;;;;;;5033463;28;20350;-80
2022/04/09 12:15:52;;;;;;;24.90;18.80;;;6.80;99.90;;;;;;5033254;28;20208;-82
2022/04/09 12:18:31;;;;;;;16.17;10.67;;;6.90;99.90;;;;;;5033634;28;20176;-79
2022/04/09 12:20:58;;;;;;;25.13;16.37;;;6.90;99.90;;;;;;5033527;28;20198;-79
2022/04/09 12:23:33;;;;;;;20.77;13.83;;;6.80;99.90;;;;;;5035009;28;20614;-81
2022/04/09 12:26:00;;;;;;;16.47;10.70;;;7.00;99.90;;;;;;5035532;28;20215;-81
2022/04/09 12:28:32;;;;;;;13.97;8.87;;;7.20;99.90;;;;;;5019821;28;20187;-79
2022/04/09 12:31:00;;;;;;;11.47;7.47;;;7.20;99.90;;;;;;5045251;28;20200;-81
2022/04/09 12:33:26;;;;;;;9.83;6.27;;;;;;;;;;5056842;28;20173;-82
2022/04/09 12:36:05;;;;;;;11.47;6.03;;;7.10;99.90;;;;;;5057568;28;20283;-80
2022/04/09 12:38:36;;;;;;;10.53;5.30;;;7.00;99.90;;;;;;5057468;28;20157;-78
2022/04/09 12:41:04;;;;;;;8.47;5.30;;;7.10;99.90;;;;;;5048625;28;20257;-82
2022/04/09 12:43:36;;;;;;;8.67;5.37;;;7.10;99.90;;;;;;5046601;28;20177;-80
2022/04/09 12:46:11;;;;;;;9.03;5.00;;;7.10;99.90;;;;;;5058157;28;20171;-84
2022/04/09 12:48:41;;;;;;;8.80;4.50;;;7.10;99.90;;;;;;5060625;28;20227;-80
2022/04/09 12:51:08;;;;;;;7.13;4.30;;;7.20;99.90;;;;;;5060681;28;20262;-82
2022/04/09 12:53:34;;;;;;;9.57;5.03;;;7.10;99.90;;;;;;5043958;28;20247;-81